Time;durP1;ratioP1;P1;durP2;ratioP2;P2;SDS_P1;SDS_P2;PMS_P1;PMS_P2;Temp;Humidity;BMP_temperature;BMP_pressure;BME280_temperature;BME280_humidity;BME280_pressure;Samples;Min_cycle;Max_cycle;Signal;HPM_P1;HPM_P2
2022/05/27 00:02:18;;;;;;;5.73;1.90;;;;;;;15.17;85.36;100538.28;5074845;28;20235;-60
2022/05/27 00:04:44;;;;;;;6.50;2.10;;;;;;;15.10;85.96;100534.44;5052807;28;20202;-60
2022/05/27 00:07:09;;;;;;;3.13;1.90;;;;;;;15.08;86.44;100532.88;5052036;28;20176;-59
2022/05/27 00:09:34;;;;;;;3.73;1.30;;;;;;;15.04;86.98;100540.00;5052633;28;20177;-59
2022/05/27 00:12:00;;;;;;;3.13;1.50;;;;;;;15.08;86.42;100536.31;5073952;28;20232;-59
2022/05/27 00:14:25;;;;;;;2.90;1.57;;;;;;;14.96;86.85;100531.94;5051468;28;20609;-59
2022/05/27 00:16:51;;;;;;;5.23;1.97;;;;;;;14.97;87.19;100531.84;5035873;28;20260;-59
2022/05/27 00:19:16;;;;;;;3.20;2.13;;;;;;;14.94;87.57;100534.63;5032342;28;20244;-58
2022/05/27 00:21:42;;;;;;;2.90;1.50;;;;;;;14.88;88.14;100522.06;5048583;28;20236;-59
2022/05/27 00:24:07;;;;;;;3.37;2.17;;;;;;;14.88;88.64;100522.06;5033868;28;20186;-58
2022/05/27 00:26:33;;;;;;;5.40;1.60;;;;;;;14.77;89.69;100521.94;5032105;28;20174;-59
2022/05/27 00:28:58;;;;;;;2.87;1.73;;;;;;;14.69;90.42;100512.91;5032358;28;20181;-59
2022/05/27 00:31:23;;;;;;;3.80;1.80;;;;;;;14.66;90.68;100518.31;5043564;28;20224;-59
2022/05/27 00:33:49;;;;;;;4.60;1.67;;;;;;;14.58;91.49;100512.75;5039338;28;20235;-60
2022/05/27 00:36:14;;;;;;;6.23;2.00;;;;;;;14.67;90.87;100516.53;5031626;28;20181;-59
2022/05/27 00:38:41;;;;;;;3.03;1.73;;;;;;;14.59;91.45;100514.41;5032304;28;20185;-59
2022/05/27 00:41:08;;;;;;;1.80;1.57;;;;;;;14.66;91.89;100509.69;5039149;28;20242;-59
2022/05/27 00:43:33;;;;;;;4.67;1.93;;;;;;;14.67;91.58;100501.00;5043754;28;20182;-60
2022/05/27 00:46:23;;;;;;;3.67;1.77;;;;;;;14.50;92.26;100497.72;5051742;28;20199;-62
2022/05/27 00:48:52;;;;;;;1.73;1.50;;;;;;;14.55;92.28;100492.25;5050290;28;20188;-61
2022/05/27 00:51:21;;;;;;;3.57;1.60;;;;;;;14.57;92.58;100497.34;5064837;28;20227;-60
2022/05/27 00:54:06;;;;;;;2.07;1.77;;;;;;;14.52;92.79;100497.63;5055893;28;20173;-59
2022/05/27 00:56:36;;;;;;;5.00;2.27;;;;;;;14.49;92.77;100498.66;5042004;28;20177;-59
2022/05/27 00:59:07;;;;;;;3.47;1.90;;;;;;;14.56;92.76;100498.25;5046731;28;20571;-60
2022/05/27 01:01:32;;;;;;;4.10;1.60;;;;;;;14.53;93.13;100494.09;5052308;28;20259;-60
2022/05/27 01:04:01;;;;;;;2.20;1.80;;;;;;;14.53;93.35;100496.69;5039660;28;20173;-59
2022/05/27 01:06:27;;;;;;;3.43;1.60;;;;;;;14.53;93.43;100494.94;5046541;28;20661;-59
2022/05/27 01:08:54;;;;;;;4.30;1.77;;;;;;;14.49;93.87;100490.88;5035104;28;20277;-59
2022/05/27 01:11:57;;;;;;;2.23;1.57;;;;;;;14.49;93.48;100490.06;5042275;28;20331;-60
2022/05/27 01:15:00;;;;;;;2.63;2.00;;;;;;;14.39;94.37;100484.66;5047165;28;20520;-60
2022/05/27 01:17:33;;;;;;;2.13;1.80;;;;;;;14.28;95.34;100481.94;5049649;28;20276;-59
2022/05/27 01:20:20;;;;;;;2.60;1.50;;;;;;;14.36;95.12;100482.25;5049701;28;20236;-60
2022/05/27 01:23:08;;;;;;;3.67;2.20;;;;;;;14.28;95.67;100476.75;5023721;28;20618;-60
2022/05/27 01:25:33;;;;;;;4.63;1.77;;;;;;;14.36;95.88;100484.84;5035545;28;20209;-59
2022/05/27 01:28:23;;;;;;;5.87;1.73;;;;;;;14.38;94.78;100490.75;5030905;28;20659;-60
2022/05/27 01:31:05;;;;;;;3.53;2.00;;;;;;;14.41;94.99;100487.94;5056098;28;20267;-60
2022/05/27 01:33:58;;;;;;;5.23;2.27;;;;;;;14.48;94.94;100486.63;5063183;28;20174;-60
2022/05/27 01:36:30;;;;;;;4.70;2.10;;;;;;;14.55;94.23;100492.25;5046103;28;20209;-60
2022/05/27 01:39:08;;;;;;;3.73;2.07;;;;;;;14.52;93.82;100484.69;5030931;28;20170;-59
2022/05/27 01:41:42;;;;;;;3.70;2.30;;;;;;;14.50;94.95;100473.63;5059206;28;20245;-59
2022/05/27 01:44:24;;;;;;;6.73;2.43;;;;;;;14.53;93.90;100491.53;5044925;28;20271;-59
2022/05/27 01:46:50;;;;;;;4.57;2.00;;;;;;;14.54;93.92;100488.00;5045993;28;20185;-59
2022/05/27 01:49:33;;;;;;;6.07;1.90;;;;;;;14.62;93.49;100488.31;5032165;28;20280;-60
2022/05/27 01:52:21;;;;;;;2.90;2.13;;;;;;;14.59;93.66;100487.72;5036723;28;20221;-58
2022/05/27 01:55:08;;;;;;;4.97;2.30;;;;;;;14.46;94.39;100485.94;5048355;28;20246;-58
2022/05/27 01:57:48;;;;;;;2.97;1.97;;;;;;;14.37;95.34;100481.31;5048692;28;20256;-59
2022/05/27 02:00:14;;;;;;;4.43;2.20;;;;;;;14.32;96.51;100483.38;5040776;28;20205;-59
2022/05/27 02:02:47;;;;;;;3.80;2.20;;;;;;;14.27;96.99;100481.09;5049639;28;20356;-59
2022/05/27 02:05:23;;;;;;;3.23;2.00;;;;;;;14.27;97.28;100483.66;5066272;28;20173;-59
2022/05/27 02:08:00;;;;;;;2.87;2.47;;;;;;;14.23;97.30;100484.81;5048673;28;20323;-59
2022/05/27 02:10:58;;;;;;;4.23;2.33;;;;;;;14.29;97.17;100488.75;5062362;28;20220;-60
2022/05/27 02:13:57;;;;;;;5.63;2.70;;;;;;;14.25;97.56;100475.19;5063729;28;20594;-59
2022/05/27 02:16:33;;;;;;;5.23;2.30;;;;;;;14.31;97.75;100474.81;5030184;28;20201;-59
2022/05/27 02:19:09;;;;;;;4.33;2.60;;;;;;;14.43;96.66;100487.88;5029233;28;20221;-58
2022/05/27 02:21:52;;;;;;;4.73;2.87;;;;;;;14.30;97.07;100474.88;5045107;28;20220;-58
2022/05/27 02:24:27;;;;;;;5.33;2.40;;;;;;;14.34;97.49;100474.59;5030852;28;20186;-59
2022/05/27 02:27:02;;;;;;;5.33;2.33;;;;;;;14.40;96.45;100472.53;5028912;28;20189;-60
2022/05/27 02:29:30;;;;;;;3.00;2.20;;;;;;;14.57;95.49;100469.66;5029331;28;20180;-62
2022/05/27 02:32:02;;;;;;;4.87;2.63;;;;;;;14.52;95.76;100477.75;5065560;28;20233;-59
2022/05/27 02:37:28;;;;;;;4.27;2.53;;;;;;;14.64;94.55;100481.28;5033090;28;20243;-63
2022/05/27 02:39:55;;;;;;;3.83;2.90;;;;;;;14.65;94.22;100464.84;5048856;28;20232;-60
2022/05/27 02:42:35;;;;;;;7.63;2.80;;;;;;;14.59;93.67;100462.66;5055804;28;20291;-60
2022/05/27 02:45:06;;;;;;;6.67;2.80;;;;;;;14.69;93.53;100468.09;5065462;28;20180;-59
2022/05/27 02:48:18;;;;;;;3.30;2.20;;;;;;;14.67;92.83;100459.56;5049654;28;20239;-60
2022/05/27 02:51:05;;;;;;;4.77;2.90;;;;;;;14.62;93.20;100459.03;5010537;28;20665;-60
2022/05/27 02:53:45;;;;;;;2.40;2.10;;;;;;;14.60;93.05;100448.78;5028297;28;20189;-59
2022/05/27 02:56:18;;;;;;;3.50;2.83;;;;;;;14.59;93.37;100454.88;5049090;28;20269;-60
2022/05/27 02:58:43;;;;;;;4.50;2.40;;;;;;;14.62;93.75;100446.06;5049535;28;20623;-60
2022/05/27 03:01:09;;;;;;;3.97;2.43;;;;;;;14.55;93.85;100448.25;5026515;28;20296;-60
2022/05/27 03:03:34;;;;;;;5.10;2.50;;;;;;;14.48;94.16;100447.00;5049721;28;20235;-60
2022/05/27 03:06:11;;;;;;;4.77;3.00;;;;;;;14.55;94.46;100452.59;5033647;28;20170;-60
2022/05/27 03:09:00;;;;;;;4.63;2.77;;;;;;;14.36;95.63;100451.19;5034352;28;20540;-60
2022/05/27 03:12:05;;;;;;;3.37;2.50;;;;;;;14.42;95.29;100444.81;5053674;28;20232;-59
2022/05/27 03:14:59;;;;;;;4.47;2.73;;;;;;;14.35;95.73;100452.13;5048624;28;20180;-58
2022/05/27 03:17:55;;;;;;;3.23;2.60;;;;;;;14.23;97.05;100445.16;5058351;28;20257;-59
2022/05/27 03:20:48;;;;;;;4.63;2.93;;;;;;;14.15;97.71;100438.75;5045335;28;20221;-59
2022/05/27 03:23:49;;;;;;;4.20;2.37;;;;;;;14.08;98.56;100440.06;5063100;28;20251;-59
2022/05/27 03:26:32;;;;;;;4.30;2.43;;;;;;;14.01;99.35;100441.34;5023683;28;20186;-59
2022/05/27 03:29:34;;;;;;;4.70;2.40;;;;;;;13.95;100.00;100445.16;5032148;28;20178;-60
2022/05/27 03:32:08;;;;;;;5.03;2.70;;;;;;;14.09;99.54;100438.28;5049489;28;20220;-60
2022/05/27 03:34:42;;;;;;;4.30;2.87;;;;;;;14.02;100.00;100438.66;5033300;28;20186;-60
2022/05/27 03:37:18;;;;;;;4.87;2.80;;;;;;;13.89;100.00;100435.19;5031521;28;20629;-60
2022/05/27 03:40:07;;;;;;;3.10;2.80;;;;;;;13.93;100.00;100435.84;5035094;28;20202;-60
2022/05/27 03:42:36;;;;;;;5.30;2.97;;;;;;;14.01;100.00;100429.25;5005410;28;20716;-60
2022/05/27 03:45:07;;;;;;;3.67;2.83;;;;;;;13.95;100.00;100434.00;5066449;28;20311;-61
2022/05/27 03:47:33;;;;;;;2.67;2.47;;;;;;;13.91;100.00;100433.34;5049394;28;20177;-59
2022/05/27 03:49:59;;;;;;;4.73;2.47;;;;;;;13.92;100.00;100437.59;5064105;28;20565;-59
2022/05/27 03:52:27;;;;;;;3.47;2.60;;;;;;;13.86;100.00;100440.56;5058385;28;20266;-60
2022/05/27 03:54:52;;;;;;;5.57;3.40;;;;;;;13.89;100.00;100440.38;5048172;28;20197;-61
2022/05/27 03:57:18;;;;;;;3.97;2.57;;;;;;;13.97;100.00;100443.31;5032586;28;20174;-60
2022/05/27 03:59:43;;;;;;;5.37;2.20;;;;;;;14.07;100.00;100447.91;5032738;28;20206;-61
2022/05/27 04:02:09;;;;;;;4.40;2.50;;;;;;;14.07;99.89;100440.97;5038016;28;20271;-60
2022/05/27 04:04:34;;;;;;;7.00;2.43;;;;;;;14.17;100.00;100444.63;5047715;28;20197;-60
2022/05/27 04:07:00;;;;;;;2.97;2.50;;;;;;;14.28;98.84;100449.09;5031982;28;20597;-61
2022/05/27 04:09:26;;;;;;;2.93;2.40;;;;;;;14.33;98.57;100444.47;5032525;28;20677;-60
2022/05/27 04:11:52;;;;;;;5.90;2.80;;;;;;;14.42;97.14;100453.38;5059332;28;20243;-62
2022/05/27 04:14:19;;;;;;;3.43;2.57;;;;;;;14.45;96.46;100455.78;5046071;28;20596;-60
2022/05/27 04:16:44;;;;;;;6.40;2.30;;;;;;;14.42;97.12;100452.56;5050732;28;20327;-60
2022/05/27 04:19:10;;;;;;;4.03;2.47;;;;;;;14.53;97.21;100456.09;5052250;28;20304;-60
2022/05/27 04:21:36;;;;;;;3.43;2.67;;;;;;;14.53;96.72;100450.09;5054045;28;20688;-60
2022/05/27 04:24:02;;;;;;;4.57;2.40;;;;;;;14.66;96.53;100456.16;5051058;28;20183;-59
2022/05/27 04:26:28;;;;;;;3.07;2.20;;;;;;;14.66;95.95;100448.41;5050374;28;20173;-59
2022/05/27 04:28:53;;;;;;;2.90;2.10;;;;;;;14.62;95.60;100456.44;5050347;28;20169;-60
2022/05/27 04:31:19;;;;;;;3.83;2.20;;;;;;;14.72;94.81;100449.75;5032714;28;20244;-60
2022/05/27 04:33:44;;;;;;;3.43;2.00;;;;;;;14.78;93.75;100448.50;5037424;28;20178;-60
2022/05/27 04:36:11;;;;;;;2.97;2.10;;;;;;;14.84;92.77;100442.94;5031915;28;20205;-60
2022/05/27 04:38:37;;;;;;;4.53;1.87;;;;;;;14.86;92.16;100446.25;5047609;28;20185;-61
2022/05/27 04:41:03;;;;;;;3.43;2.30;;;;;;;15.05;91.13;100450.19;5041858;28;20379;-60
2022/05/27 04:43:29;;;;;;;6.57;2.33;;;;;;;15.18;88.93;100438.03;5043886;28;20295;-60
2022/05/27 04:45:54;;;;;;;2.77;1.73;;;;;;;15.45;87.62;100444.84;5045672;28;20276;-59
2022/05/27 04:48:20;;;;;;;4.30;2.20;;;;;;;15.52;86.61;100446.09;5036706;28;20189;-59
2022/05/27 04:50:46;;;;;;;3.43;1.97;;;;;;;15.71;85.53;100444.78;5053490;28;20236;-59
2022/05/27 04:53:12;;;;;;;3.23;1.70;;;;;;;15.73;84.72;100443.75;5050533;28;20177;-60
2022/05/27 04:55:40;;;;;;;2.53;1.63;;;;;;;15.71;83.84;100448.19;5051439;28;20208;-60
2022/05/27 04:58:06;;;;;;;3.00;1.70;;;;;;;16.01;83.36;100448.75;5047455;28;20710;-59
2022/05/27 05:00:38;;;;;;;2.30;1.37;;;;;;;16.30;80.07;100452.66;5019201;28;20638;-59
2022/05/27 05:03:04;;;;;;;3.13;1.60;;;;;;;16.30;80.01;100457.84;5022553;28;20182;-60
2022/05/27 05:05:31;;;;;;;2.00;1.57;;;;;;;16.27;79.86;100450.31;5026889;28;20186;-60
2022/05/27 05:08:24;;;;;;;4.80;1.63;;;;;;;16.37;78.89;100453.06;5010169;28;20194;-62
2022/05/27 05:10:50;;;;;;;3.73;1.50;;;;;;;16.61;78.36;100458.19;5003664;28;20241;-60
2022/05/27 05:13:16;;;;;;;1.90;1.50;;;;;;;16.94;77.83;100448.84;5023574;28;20174;-60
2022/05/27 05:15:41;;;;;;;1.50;1.40;;;;;;;16.91;76.41;100445.63;5013257;28;20194;-60
2022/05/27 05:18:07;;;;;;;2.40;1.40;;;;;;;17.00;75.64;100450.13;5010077;28;20232;-61
2022/05/27 05:20:33;;;;;;;1.97;1.57;;;;;;;17.12;75.63;100453.59;5005074;28;20253;-60
2022/05/27 05:22:58;;;;;;;5.03;1.50;;;;;;;17.41;73.50;100446.13;5010216;28;20178;-60
2022/05/27 05:25:25;;;;;;;1.40;1.30;;;;;;;17.43;73.58;100441.63;5011771;28;20209;-59
2022/05/27 05:27:52;;;;;;;3.37;1.37;;;;;;;17.51;72.38;100450.59;5010799;28;20202;-59
2022/05/27 05:30:20;;;;;;;3.13;1.40;;;;;;;17.74;71.45;100451.41;5022048;28;20295;-60
2022/05/27 05:32:45;;;;;;;1.90;1.23;;;;;;;17.71;71.06;100454.22;5024519;28;20270;-59
2022/05/27 05:35:15;;;;;;;4.63;1.40;;;;;;;18.01;69.21;100453.59;5011604;28;20206;-59
2022/05/27 05:37:41;;;;;;;3.20;1.30;;;;;;;18.17;68.74;100450.59;5009406;28;20175;-59
2022/05/27 05:40:09;;;;;;;1.90;1.07;;;;;;;18.27;68.15;100458.50;5008609;28;20728;-60
2022/05/27 05:42:34;;;;;;;1.27;1.00;;;;;;;18.54;66.96;100460.59;5026874;28;20512;-59
2022/05/27 05:45:00;;;;;;;2.07;1.17;;;;;;;18.34;67.11;100456.19;5024381;28;20186;-59
2022/05/27 05:47:26;;;;;;;1.77;1.07;;;;;;;18.14;67.62;100456.03;5010886;28;20648;-59
2022/05/27 05:49:51;;;;;;;2.87;1.20;;;;;;;18.27;67.35;100457.66;5011181;28;20225;-61
2022/05/27 05:52:17;;;;;;;3.57;1.40;;;;;;;18.48;65.80;100458.50;5034806;28;20344;-60
2022/05/27 05:54:42;;;;;;;1.63;1.20;;;;;;;18.19;66.53;100455.66;5042791;28;20186;-59
2022/05/27 05:57:08;;;;;;;5.47;1.30;;;;;;;18.14;66.12;100457.81;5044460;28;20177;-59
2022/05/27 05:59:36;;;;;;;3.50;1.33;;;;;;;18.15;66.45;100456.88;5049996;28;20217;-59
2022/05/27 06:02:02;;;;;;;3.57;1.40;;;;;;;18.54;65.59;100463.22;5053981;28;20277;-59
2022/05/27 06:04:28;;;;;;;1.50;1.00;;;;;;;18.32;65.08;100456.34;5031975;28;20547;-59
2022/05/27 06:06:55;;;;;;;2.50;1.40;;;;;;;18.23;65.58;100455.31;5048329;28;20487;-59
2022/05/27 06:09:25;;;;;;;1.63;1.20;;;;;;;18.18;65.20;100473.09;5048592;28;20196;-59
2022/05/27 06:11:51;;;;;;;1.40;1.30;;;;;;;17.97;66.84;100466.97;5056158;28;20221;-59
2022/05/27 06:14:16;;;;;;;2.30;1.23;;;;;;;17.82;67.52;100474.22;5046939;28;20280;-59
2022/05/27 06:16:41;;;;;;;2.00;1.53;;;;;;;17.77;68.50;100476.34;5049702;28;20189;-61
2022/05/27 06:19:07;;;;;;;1.37;1.20;;;;;;;17.70;68.51;100482.03;5050016;28;20341;-60
2022/05/27 06:21:32;;;;;;;1.90;1.37;;;;;;;17.58;68.79;100476.00;5051859;28;20261;-60
2022/05/27 06:23:57;;;;;;;5.00;1.50;;;;;;;17.37;70.65;100475.91;5046386;28;20663;-61
2022/05/27 06:26:23;;;;;;;2.30;1.47;;;;;;;17.18;71.94;100467.88;5029520;28;20240;-59
2022/05/27 06:34:25;;;;;;;3.17;1.70;;;;;;;16.92;74.40;100479.31;5054262;28;20195;-59
2022/05/27 06:37:15;;;;;;;2.23;1.40;;;;;;;17.07;73.42;100476.50;5053445;28;20188;-59
2022/05/27 06:39:41;;;;;;;1.87;1.20;;;;;;;17.00;73.96;100477.91;5043524;28;20210;-61
2022/05/27 06:42:08;;;;;;;2.80;1.50;;;;;;;16.94;74.06;100482.63;5067624;28;20217;-59
2022/05/27 06:44:35;;;;;;;1.50;1.40;;;;;;;16.91;74.31;100482.00;5052143;28;20485;-59
2022/05/27 06:47:00;;;;;;;2.13;1.60;;;;;;;16.99;74.30;100491.84;5062215;28;20182;-60
2022/05/27 06:49:26;;;;;;;2.07;1.30;;;;;;;16.96;74.13;100482.50;5045532;28;20217;-60
2022/05/27 06:51:51;;;;;;;2.07;1.67;;;;;;;16.96;74.69;100479.09;5056119;28;20224;-62
2022/05/27 06:54:17;;;;;;;1.90;1.50;;;;;;;17.10;74.97;100484.91;5054132;28;20189;-63
2022/05/27 06:56:44;;;;;;;3.20;1.33;;;;;;;17.09;72.98;100490.19;5048429;28;20200;-63
2022/05/27 06:59:11;;;;;;;1.43;1.00;;;;;;;17.05;73.31;100491.38;5063555;28;20181;-62
2022/05/27 07:01:37;;;;;;;3.00;1.40;;;;;;;17.08;73.22;100491.16;5030264;28;20291;-62
2022/05/27 07:04:04;;;;;;;6.03;1.50;;;;;;;17.20;73.22;100497.19;5032870;28;20247;-63
2022/05/27 07:06:37;;;;;;;1.20;1.10;;;;;;;17.06;74.07;100495.63;5039838;28;20659;-62
2022/05/27 07:09:06;;;;;;;2.13;1.03;;;;;;;17.12;73.64;100502.97;5067456;28;20177;-63
2022/05/27 07:11:32;;;;;;;2.07;1.50;;;;;;;17.26;73.11;100504.50;5054975;28;20216;-63
2022/05/27 07:13:57;;;;;;;1.97;1.57;;;;;;;17.21;73.46;100517.84;5051607;28;20177;-65
2022/05/27 07:16:22;;;;;;;1.23;1.13;;;;;;;17.22;73.64;100506.50;5048676;28;20268;-63
2022/05/27 07:18:47;;;;;;;2.00;1.23;;;;;;;17.22;72.70;100508.28;5044649;28;20222;-63
2022/05/27 07:21:13;;;;;;;2.77;1.50;;;;;;;17.22;73.96;100503.09;5042785;28;20278;-64
2022/05/27 07:23:38;;;;;;;1.30;1.20;;;;;;;17.39;72.56;100499.19;5046769;28;20260;-63
2022/05/27 07:26:04;;;;;;;6.03;1.43;;;;;;;17.67;71.19;100497.06;5042668;28;20232;-63
2022/05/27 07:28:29;;;;;;;2.17;1.23;;;;;;;17.89;68.61;100497.00;5036000;28;20288;-63
2022/05/27 07:30:56;;;;;;;2.93;1.70;;;;;;;17.70;69.92;100499.41;5027737;28;20646;-62
2022/05/27 07:33:22;;;;;;;3.10;1.60;;;;;;;17.78;70.61;100499.63;5057689;28;20180;-61
2022/05/27 07:35:48;;;;;;;1.70;1.30;;;;;;;17.94;69.76;100504.50;5051372;28;20645;-62
2022/05/27 07:38:14;;;;;;;3.10;1.60;;;;;;;18.00;69.29;100501.41;5044331;28;20209;-61
2022/05/27 07:40:39;;;;;;;1.70;1.60;;;;;;;17.90;68.97;100503.88;5036984;28;20267;-61
2022/05/27 07:43:08;;;;;;;3.33;1.90;;;;;;;18.00;69.53;100500.59;5057405;28;20604;-63
2022/05/27 07:45:36;;;;;;;2.27;1.30;;;;;;;18.05;69.35;100506.25;5046239;28;20186;-64
2022/05/27 07:48:02;;;;;;;3.33;1.73;;;;;;;18.13;68.62;100505.63;5031545;28;20875;-62
2022/05/27 07:50:27;;;;;;;2.23;1.57;;;;;;;18.50;67.51;100503.47;5039558;28;20273;-64
2022/05/27 07:52:53;;;;;;;5.23;1.53;;;;;;;18.90;65.42;100512.38;5066165;28;20182;-63
2022/05/27 07:55:18;;;;;;;1.93;1.20;;;;;;;19.12;63.44;100505.41;5041722;28;20184;-66
2022/05/27 07:57:45;;;;;;;1.47;1.00;;;;;;;18.95;63.67;100509.44;5043679;28;20177;-66
2022/05/27 08:00:27;;;;;;;1.80;1.27;;;;;;;18.24;68.29;100513.41;5042713;28;20343;-63
2022/05/27 08:02:52;;;;;;;2.80;1.30;;;;;;;18.28;67.95;100517.41;5065304;28;20193;-63
2022/05/27 08:05:20;;;;;;;1.33;0.90;;;;;;;18.12;70.43;100514.38;5045182;28;20557;-63
2022/05/27 08:07:46;;;;;;;1.83;1.03;;;;;;;18.12;71.80;100511.78;5050593;28;20284;-65
2022/05/27 08:10:14;;;;;;;2.00;0.80;;;;;;;18.04;72.54;100512.41;5039588;28;20257;-66
2022/05/27 08:12:40;;;;;;;2.40;1.07;;;;;;;18.37;73.11;100502.84;5071329;28;20231;-64
2022/05/27 08:15:07;;;;;;;2.73;1.17;;;;;;;19.27;71.05;100504.09;5050600;28;20178;-65
2022/05/27 08:17:33;;;;;;;3.40;1.00;;;;;;;21.13;59.62;100506.09;5067315;28;20288;-66
2022/05/27 08:19:58;;;;;;;1.00;0.87;;;;;;;21.85;54.11;100500.28;5051046;28;20229;-65
2022/05/27 08:22:23;;;;;;;1.57;0.70;;;;;;;22.06;51.45;100489.50;5066620;28;20233;-66
2022/05/27 08:24:50;;;;;;;2.70;0.90;;;;;;;21.72;50.78;100496.22;5051760;28;20217;-65
2022/05/27 08:27:15;;;;;;;1.03;0.83;;;;;;;22.02;51.15;100498.66;5044766;28;20283;-65
2022/05/27 08:29:40;;;;;;;1.67;0.70;;;;;;;20.95;52.83;100503.41;5048866;28;20307;-65
2022/05/27 08:32:06;;;;;;;2.17;0.90;;;;;;;21.02;53.72;100495.81;5054687;28;20249;-64
2022/05/27 08:40:11;;;;;;;1.53;0.77;;;;;;;20.13;55.29;100493.25;5046315;28;20224;-65
2022/05/27 08:43:01;;;;;;;1.47;0.70;;;;;;;19.57;57.76;100505.03;5059370;28;20197;-64
2022/05/27 08:45:39;;;;;;;1.43;0.80;;;;;;;19.61;58.05;100495.16;5047582;28;20193;-65
2022/05/27 08:48:07;;;;;;;1.80;0.90;;;;;;;19.40;59.46;100497.84;5047073;28;20252;-64
2022/05/27 08:50:47;;;;;;;1.53;1.03;;;;;;;19.58;59.61;100500.66;5045668;28;20247;-64
2022/05/27 08:53:41;;;;;;;0.80;0.80;;;;;;;19.66;58.57;100496.44;5058139;28;20204;-64
2022/05/27 08:59:37;;;;;;;2.50;1.00;;;;;;;19.47;59.72;100515.47;5046739;28;20251;-63
2022/05/27 09:02:23;;;;;;;0.63;0.60;;;;;;;19.62;60.01;100515.09;5048753;28;20309;-65
2022/05/27 09:04:51;;;;;;;0.83;0.80;;;;;;;19.02;61.68;100526.22;5028782;28;20200;-65
2022/05/27 09:07:34;;;;;;;0.63;0.60;;;;;;;19.25;60.66;100511.25;5052208;28;20233;-65
2022/05/27 09:10:03;;;;;;;1.57;0.93;;;;;;;19.11;61.77;100522.81;5020924;28;20538;-65
2022/05/27 09:12:29;;;;;;;3.47;0.93;;;;;;;19.49;59.81;100508.31;5018110;28;20761;-66
2022/05/27 09:15:14;;;;;;;1.17;0.67;;;;;;;19.88;59.38;100507.63;5031777;28;20273;-66
2022/05/27 09:18:01;;;;;;;1.30;0.73;;;;;;;19.86;58.63;100498.28;5036307;28;20190;-64
2022/05/27 09:20:42;;;;;;;1.43;0.73;;;;;;;20.23;57.17;100510.69;5036222;28;21051;-65
2022/05/27 09:23:17;;;;;;;2.17;1.07;;;;;;;20.30;57.44;100517.88;5042676;28;20171;-65
2022/05/27 09:26:16;;;;;;;1.00;0.90;;;;;;;19.93;57.99;100509.84;5031945;28;20205;-68
2022/05/27 09:29:19;;;;;;;2.00;0.80;;;;;;;20.53;56.38;100514.97;5028217;28;20205;-64
2022/05/27 09:31:58;;;;;;;1.30;0.77;;;;;;;20.36;55.02;100528.75;5030937;28;20286;-64
2022/05/27 09:41:55;;;;;;;0.90;0.80;;;;;;;20.69;55.52;100535.31;5028572;28;20313;-64
2022/05/27 09:44:48;;;;;;;1.77;0.90;;;;;;;20.57;55.54;100531.22;5026060;28;20193;-67
2022/05/27 09:47:15;;;;;;;3.03;0.83;;;;;;;21.22;52.67;100534.03;5024744;28;20201;-66
2022/05/27 09:49:40;;;;;;;1.27;0.73;;;;;;;21.14;52.54;100525.22;5045129;28;20178;-64
2022/05/27 09:52:06;;;;;;;0.70;0.60;;;;;;;21.17;52.67;100533.59;5051839;28;20230;-64
2022/05/27 09:54:46;;;;;;;3.93;1.13;;;;;;;20.88;53.45;100534.50;5047153;28;20314;-69
2022/05/27 09:57:11;;;;;;;0.53;0.50;;;;;;;20.68;54.30;100531.06;5039855;28;20189;-66
2022/05/27 09:59:46;;;;;;;0.77;0.70;;;;;;;20.41;54.57;100523.91;5042713;28;20255;-65
2022/05/27 10:02:19;;;;;;;1.30;0.90;;;;;;;20.44;54.96;100521.00;5062408;28;20220;-65
2022/05/27 10:04:54;;;;;;;1.47;0.80;;;;;;;20.89;54.71;100523.06;5049999;28;20192;-65
2022/05/27 10:07:42;;;;;;;0.97;0.77;;;;;;;21.34;52.79;100521.56;5052491;28;20195;-65
2022/05/27 10:10:32;;;;;;;1.23;0.80;;;;;;;21.37;52.68;100523.06;5041512;28;20186;-66
2022/05/27 10:13:14;;;;;;;0.67;0.63;;;;;;;21.04;52.88;100520.03;5057928;28;20228;-67
2022/05/27 10:15:40;;;;;;;1.07;0.90;;;;;;;20.83;54.18;100515.78;5031167;28;20198;-67
2022/05/27 10:18:26;;;;;;;0.50;0.50;;;;;;;20.58;54.77;100522.41;5032407;28;20623;-65
2022/05/27 10:21:01;;;;;;;1.60;0.70;;;;;;;20.57;54.25;100513.72;5032852;28;20281;-64
2022/05/27 10:23:35;;;;;;;2.10;0.80;;;;;;;19.83;57.13;100518.50;5049703;28;20185;-65
2022/05/27 10:26:19;;;;;;;0.50;0.50;;;;;;;19.71;58.76;100511.69;5046725;28;20295;-67
2022/05/27 10:29:04;;;;;;;0.97;0.50;;;;;;;20.09;56.77;100514.53;5053120;28;20181;-68
2022/05/27 10:31:30;;;;;;;1.23;0.67;;;;;;;19.95;58.16;100507.94;5058204;28;20243;-70
2022/05/27 10:33:56;;;;;;;0.70;0.50;;;;;;;20.19;56.42;100511.94;5051946;28;20189;-69
2022/05/27 10:36:31;;;;;;;0.50;0.50;;;;;;;20.97;54.97;100498.84;5051900;28;20269;-68
2022/05/27 10:39:05;;;;;;;1.23;0.33;;;;;;;21.67;52.17;100515.94;5050661;28;20201;-66
2022/05/27 10:41:50;;;;;;;0.57;0.40;;;;;;;22.36;49.27;100500.59;5051385;28;20224;-67
2022/05/27 10:44:27;;;;;;;0.87;0.50;;;;;;;22.59;47.81;100505.38;5049818;28;20601;-64
2022/05/27 10:46:58;;;;;;;0.67;0.40;;;;;;;22.88;47.71;100510.34;5071376;28;20189;-66
2022/05/27 10:53:07;;;;;;;0.30;0.30;;;;;;;20.94;52.99;100507.78;5027137;28;20213;-66
2022/05/27 10:55:44;;;;;;;0.40;0.40;;;;;;;21.05;53.35;100508.56;5029282;28;20190;-65
2022/05/27 11:02:07;;;;;;;0.87;0.40;;;;;;;22.00;50.14;100490.91;5032630;28;20236;-64
2022/05/27 11:05:11;;;;;;;3.57;0.50;;;;;;;22.30;49.03;100488.09;5033235;28;20273;-67
2022/05/27 11:08:05;;;;;;;0.93;0.70;;;;;;;22.76;48.23;100477.47;5030773;28;20201;-66
2022/05/27 11:10:43;;;;;;;0.90;0.40;;;;;;;22.83;48.29;100475.88;5013733;28;20311;-65
2022/05/27 11:16:37;;;;;;;0.60;0.30;;;;;;;22.68;48.23;100494.78;5026034;28;20256;-67
2022/05/27 11:19:40;;;;;;;1.30;0.27;;;;;;;22.59;47.63;100482.63;5039164;28;20229;-65
2022/05/27 11:22:35;;;;;;;0.30;0.30;;;;;;;22.78;46.68;100470.28;5039441;28;20220;-64
2022/05/27 11:25:21;;;;;;;0.40;0.40;;;;;;;22.82;47.14;100476.84;5046631;28;20178;-64
2022/05/27 11:28:16;;;;;;;0.40;0.40;;;;;;;22.16;47.60;100477.16;5031687;28;20194;-65
2022/05/27 11:31:06;;;;;;;0.30;0.30;;;;;;;21.44;49.83;100479.66;5014394;28;20231;-64
2022/05/27 11:33:47;;;;;;;0.77;0.27;;;;;;;21.82;51.71;100484.84;5059522;28;20177;-63
2022/05/27 11:37:09;;;;;;;1.30;0.20;;;;;;;21.58;51.48;100481.00;5052498;28;20180;-64
2022/05/27 11:39:47;;;;;;;0.33;0.27;;;;;;;21.01;51.89;100474.06;4982211;28;20314;-63
2022/05/27 11:42:39;;;;;;;1.50;0.50;;;;;;;20.78;54.78;100477.00;4940830;28;20243;-65
2022/05/27 11:45:23;;;;;;;0.93;0.30;;;;;;;21.00;52.69;100482.88;4969638;28;20204;-65
2022/05/27 11:47:57;;;;;;;0.20;0.20;;;;;;;21.42;51.60;100468.50;4970892;28;20275;-67
2022/05/27 11:50:54;;;;;;;0.50;0.40;;;;;;;21.36;51.95;100469.09;4976313;28;20246;-66
2022/05/27 11:53:50;;;;;;;1.40;0.47;;;;;;;21.88;50.76;100472.00;4961762;28;20196;-64
2022/05/27 11:56:37;;;;;;;0.30;0.30;;;;;;;20.89;52.33;100486.47;4970877;28;20191;-64
2022/05/27 11:59:36;;;;;;;0.60;0.40;;;;;;;19.98;58.16;100505.03;4954803;28;20222;-65
2022/05/27 12:02:14;;;;;;;0.37;0.37;;;;;;;18.36;74.55;100507.19;4944419;28;20769;-63
2022/05/27 12:04:46;;;;;;;0.50;0.50;;;;;;;17.67;85.94;100502.25;4953730;28;20215;-63
2022/05/27 12:07:29;;;;;;;0.50;0.50;;;;;;;17.27;95.98;100508.78;4954536;28;20195;-66
2022/05/27 12:10:24;;;;;;;1.70;0.60;;;;;;;17.43;97.45;100509.25;4993269;28;20197;-63
2022/05/27 12:13:25;;;;;;;0.60;0.60;;;;;;;17.63;96.66;100499.06;5040721;28;20221;-63
2022/05/27 12:16:01;;;;;;;0.43;0.30;;;;;;;17.52;93.12;100497.28;5044938;28;20252;-63
2022/05/27 12:18:46;;;;;;;0.40;0.40;;;;;;;17.73;93.10;100484.38;5048659;28;20207;-64
2022/05/27 12:21:19;;;;;;;1.80;0.80;;;;;;;18.46;83.79;100483.84;5064546;28;20645;-63
2022/05/27 12:24:00;;;;;;;1.20;0.60;;;;;;;18.88;82.57;100496.06;5065611;28;20185;-63
2022/05/27 12:26:44;;;;;;;0.87;0.70;;;;;;;19.52;79.97;100497.63;5064239;28;20181;-64
2022/05/27 12:29:13;;;;;;;2.10;0.50;;;;;;;19.94;72.83;100491.44;5048908;28;20195;-64
2022/05/27 12:31:39;;;;;;;0.40;0.40;;;;;;;20.15;72.27;100487.88;5043341;28;20337;-64